sensor_id;sensor_type;location;lat;lon;timestamp;pressure;altitude;pressure_sealevel;temperature;humidity
48216;BME280;34005;48.844;10.098;2023-03-31T00:00:28;96137.75;;;10.36;66.86
48216;BME280;34005;48.844;10.098;2023-03-31T00:02:56;96134.16;;;10.37;66.00
48216;BME280;34005;48.844;10.098;2023-03-31T00:05:24;96128.69;;;10.31;65.39
48216;BME280;34005;48.844;10.098;2023-03-31T00:07:52;96120.78;;;10.25;65.31
48216;BME280;34005;48.844;10.098;2023-03-31T00:10:21;96119.72;;;10.13;65.47
48216;BME280;34005;48.844;10.098;2023-03-31T00:12:49;96120.31;;;10.08;65.59
48216;BME280;34005;48.844;10.098;2023-03-31T00:15:16;96115.09;;;10.08;68.68
48216;BME280;34005;48.844;10.098;2023-03-31T00:17:44;96100.66;;;10.12;68.60
48216;BME280;34005;48.844;10.098;2023-03-31T00:20:12;96099.50;;;10.15;67.32
48216;BME280;34005;48.844;10.098;2023-03-31T00:22:41;96102.91;;;10.15;69.74
48216;BME280;34005;48.844;10.098;2023-03-31T00:25:12;96092.03;;;10.11;67.64
48216;BME280;34005;48.844;10.098;2023-03-31T00:27:42;96092.81;;;10.05;67.06
48216;BME280;34005;48.844;10.098;2023-03-31T00:30:12;96087.97;;;10.02;69.46
48216;BME280;34005;48.844;10.098;2023-03-31T00:32:40;96078.97;;;10.05;68.37
48216;BME280;34005;48.844;10.098;2023-03-31T00:35:08;96071.56;;;10.02;68.22
48216;BME280;34005;48.844;10.098;2023-03-31T00:37:36;96076.50;;;9.97;70.30
48216;BME280;34005;48.844;10.098;2023-03-31T00:40:04;96070.31;;;9.98;69.07
48216;BME280;34005;48.844;10.098;2023-03-31T00:42:38;96070.13;;;9.99;68.77
48216;BME280;34005;48.844;10.098;2023-03-31T00:45:25;96063.72;;;10.02;67.82
48216;BME280;34005;48.844;10.098;2023-03-31T00:47:58;96066.34;;;10.02;71.47
48216;BME280;34005;48.844;10.098;2023-03-31T00:50:31;96051.69;;;10.01;68.64
48216;BME280;34005;48.844;10.098;2023-03-31T00:53:01;96046.47;;;10.01;69.91
48216;BME280;34005;48.844;10.098;2023-03-31T00:55:34;96038.03;;;9.99;67.54
48216;BME280;34005;48.844;10.098;2023-03-31T00:58:04;96034.41;;;9.93;67.31
48216;BME280;34005;48.844;10.098;2023-03-31T01:00:34;96033.97;;;9.89;67.73
48216;BME280;34005;48.844;10.098;2023-03-31T01:03:05;96027.97;;;9.89;67.40
48216;BME280;34005;48.844;10.098;2023-03-31T01:05:39;96022.94;;;9.87;67.15
48216;BME280;34005;48.844;10.098;2023-03-31T01:08:09;96024.31;;;9.83;67.00
48216;BME280;34005;48.844;10.098;2023-03-31T01:10:39;96018.72;;;9.80;67.19
48216;BME280;34005;48.844;10.098;2023-03-31T01:13:09;96013.69;;;9.78;67.09
48216;BME280;34005;48.844;10.098;2023-03-31T01:15:39;96009.84;;;9.74;67.13
48216;BME280;34005;48.844;10.098;2023-03-31T01:18:09;96007.25;;;9.74;66.89
48216;BME280;34005;48.844;10.098;2023-03-31T01:20:52;95998.63;;;9.74;67.05
48216;BME280;34005;48.844;10.098;2023-03-31T01:24:03;95999.44;;;9.74;66.92
48216;BME280;34005;48.844;10.098;2023-03-31T01:26:54;96003.41;;;9.70;66.69
48216;BME280;34005;48.844;10.098;2023-03-31T01:33:02;96001.41;;;9.72;66.86
48216;BME280;34005;48.844;10.098;2023-03-31T01:35:57;96005.03;;;9.71;66.68
48216;BME280;34005;48.844;10.098;2023-03-31T01:41:46;95988.78;;;9.69;66.65
48216;BME280;34005;48.844;10.098;2023-03-31T01:44:20;95987.16;;;9.68;66.60
48216;BME280;34005;48.844;10.098;2023-03-31T01:46:53;95986.19;;;9.69;66.54
48216;BME280;34005;48.844;10.098;2023-03-31T01:49:28;95987.78;;;9.70;66.52
48216;BME280;34005;48.844;10.098;2023-03-31T01:52:05;95984.19;;;9.71;66.48
48216;BME280;34005;48.844;10.098;2023-03-31T01:54:38;95983.81;;;9.74;66.37
48216;BME280;34005;48.844;10.098;2023-03-31T01:57:13;95991.44;;;9.76;66.44
48216;BME280;34005;48.844;10.098;2023-03-31T01:59:48;95994.25;;;9.81;66.83
48216;BME280;34005;48.844;10.098;2023-03-31T02:02:20;95973.84;;;9.84;66.08
48216;BME280;34005;48.844;10.098;2023-03-31T02:04:54;95959.44;;;9.88;66.19
48216;BME280;34005;48.844;10.098;2023-03-31T02:07:27;95969.88;;;9.88;65.90
48216;BME280;34005;48.844;10.098;2023-03-31T02:10:00;95948.19;;;9.88;66.04
48216;BME280;34005;48.844;10.098;2023-03-31T02:12:33;95949.03;;;9.88;65.95
48216;BME280;34005;48.844;10.098;2023-03-31T02:15:05;95960.06;;;9.90;65.64
48216;BME280;34005;48.844;10.098;2023-03-31T02:17:36;95950.22;;;9.93;65.62
48216;BME280;34005;48.844;10.098;2023-03-31T02:20:08;95953.44;;;9.95;65.37
48216;BME280;34005;48.844;10.098;2023-03-31T02:22:41;95947.84;;;9.98;65.30
48216;BME280;34005;48.844;10.098;2023-03-31T02:25:12;95936.06;;;10.02;65.29
48216;BME280;34005;48.844;10.098;2023-03-31T02:27:45;95938.06;;;10.06;66.63
48216;BME280;34005;48.844;10.098;2023-03-31T02:30:16;95935.88;;;10.10;65.87
48216;BME280;34005;48.844;10.098;2023-03-31T02:32:44;95932.09;;;10.13;66.06
48216;BME280;34005;48.844;10.098;2023-03-31T02:35:15;95945.53;;;10.16;65.67
48216;BME280;34005;48.844;10.098;2023-03-31T02:37:43;95956.19;;;10.21;67.96
48216;BME280;34005;48.844;10.098;2023-03-31T02:40:16;95955.59;;;10.26;68.19
48216;BME280;34005;48.844;10.098;2023-03-31T02:42:45;95954.03;;;10.31;68.27
48216;BME280;34005;48.844;10.098;2023-03-31T02:45:42;95953.84;;;10.40;68.33
48216;BME280;34005;48.844;10.098;2023-03-31T02:48:15;95941.63;;;10.47;67.40
48216;BME280;34005;48.844;10.098;2023-03-31T02:51:06;95935.44;;;10.55;67.84
48216;BME280;34005;48.844;10.098;2023-03-31T02:53:52;95928.44;;;10.62;68.20
48216;BME280;34005;48.844;10.098;2023-03-31T02:56:34;95918.00;;;10.68;67.53
48216;BME280;34005;48.844;10.098;2023-03-31T02:59:24;95920.63;;;10.75;69.08
48216;BME280;34005;48.844;10.098;2023-03-31T03:02:07;95914.00;;;10.79;69.05
48216;BME280;34005;48.844;10.098;2023-03-31T03:04:50;95907.38;;;10.83;70.42
48216;BME280;34005;48.844;10.098;2023-03-31T03:07:24;95899.97;;;10.87;67.39
48216;BME280;34005;48.844;10.098;2023-03-31T03:09:59;95900.59;;;10.89;66.56
48216;BME280;34005;48.844;10.098;2023-03-31T03:12:32;95891.31;;;10.93;65.88
48216;BME280;34005;48.844;10.098;2023-03-31T03:15:09;95892.75;;;10.96;66.07
48216;BME280;34005;48.844;10.098;2023-03-31T03:17:40;95887.13;;;10.99;69.14
48216;BME280;34005;48.844;10.098;2023-03-31T03:20:09;95889.13;;;11.03;69.35
48216;BME280;34005;48.844;10.098;2023-03-31T03:22:38;95882.50;;;11.07;70.44
48216;BME280;34005;48.844;10.098;2023-03-31T03:25:07;95883.09;;;11.09;70.09
48216;BME280;34005;48.844;10.098;2023-03-31T03:27:36;95870.66;;;11.11;68.56
48216;BME280;34005;48.844;10.098;2023-03-31T03:30:07;95856.56;;;11.12;69.39
48216;BME280;34005;48.844;10.098;2023-03-31T03:32:36;95836.28;;;11.14;68.27
48216;BME280;34005;48.844;10.098;2023-03-31T03:35:05;95829.06;;;11.17;67.63
48216;BME280;34005;48.844;10.098;2023-03-31T03:37:33;95811.81;;;11.16;67.54
48216;BME280;34005;48.844;10.098;2023-03-31T03:40:01;95790.53;;;11.12;66.88
48216;BME280;34005;48.844;10.098;2023-03-31T03:42:31;95776.50;;;11.06;66.68
48216;BME280;34005;48.844;10.098;2023-03-31T03:44:58;95767.88;;;10.99;67.05
48216;BME280;34005;48.844;10.098;2023-03-31T03:47:27;95755.63;;;10.93;67.15
48216;BME280;34005;48.844;10.098;2023-03-31T03:49:55;95745.44;;;10.85;67.30
48216;BME280;34005;48.844;10.098;2023-03-31T03:52:23;95733.59;;;10.82;67.49
48216;BME280;34005;48.844;10.098;2023-03-31T03:54:50;95737.81;;;10.77;67.82
48216;BME280;34005;48.844;10.098;2023-03-31T03:57:18;95734.22;;;10.71;68.68
48216;BME280;34005;48.844;10.098;2023-03-31T03:59:45;95724.59;;;10.71;69.79
48216;BME280;34005;48.844;10.098;2023-03-31T04:02:13;95729.19;;;10.76;69.75
48216;BME280;34005;48.844;10.098;2023-03-31T04:04:42;95728.59;;;10.81;70.08
48216;BME280;34005;48.844;10.098;2023-03-31T04:07:10;95718.75;;;10.83;69.42
48216;BME280;34005;48.844;10.098;2023-03-31T04:09:37;95710.31;;;10.81;68.18
48216;BME280;34005;48.844;10.098;2023-03-31T04:12:05;95706.53;;;10.77;68.62
48216;BME280;34005;48.844;10.098;2023-03-31T04:14:33;95705.72;;;10.76;69.06
48216;BME280;34005;48.844;10.098;2023-03-31T04:17:00;95703.72;;;10.78;68.73
48216;BME280;34005;48.844;10.098;2023-03-31T04:19:28;95698.69;;;10.77;69.27
48216;BME280;34005;48.844;10.098;2023-03-31T04:21:57;95695.06;;;10.78;69.70
48216;BME280;34005;48.844;10.098;2023-03-31T04:24:28;95693.47;;;10.77;69.69
48216;BME280;34005;48.844;10.098;2023-03-31T04:26:59;95697.06;;;10.76;70.05
48216;BME280;34005;48.844;10.098;2023-03-31T04:29:28;95692.88;;;10.75;69.56
48216;BME280;34005;48.844;10.098;2023-03-31T04:31:59;95680.84;;;10.74;69.44
48216;BME280;34005;48.844;10.098;2023-03-31T04:34:27;95671.00;;;10.76;70.96
48216;BME280;34005;48.844;10.098;2023-03-31T04:37:02;95670.44;;;10.74;69.57
48216;BME280;34005;48.844;10.098;2023-03-31T04:39:30;95662.00;;;10.71;70.20
48216;BME280;34005;48.844;10.098;2023-03-31T04:41:58;95656.19;;;10.69;69.18
48216;BME280;34005;48.844;10.098;2023-03-31T04:44:27;95657.59;;;10.65;70.41
48216;BME280;34005;48.844;10.098;2023-03-31T04:46:55;95654.59;;;10.62;69.85
48216;BME280;34005;48.844;10.098;2023-03-31T04:49:24;95646.59;;;10.57;69.79
48216;BME280;34005;48.844;10.098;2023-03-31T04:51:51;95619.50;;;10.51;69.56
48216;BME280;34005;48.844;10.098;2023-03-31T04:54:20;95623.53;;;10.47;69.38
48216;BME280;34005;48.844;10.098;2023-03-31T04:56:48;95616.13;;;10.44;69.15
48216;BME280;34005;48.844;10.098;2023-03-31T04:59:15;95613.13;;;10.34;68.98
48216;BME280;34005;48.844;10.098;2023-03-31T05:01:43;95610.72;;;10.19;69.42
48216;BME280;34005;48.844;10.098;2023-03-31T05:04:11;95619.16;;;10.07;69.67
48216;BME280;34005;48.844;10.098;2023-03-31T05:06:43;95622.56;;;10.01;70.26
48216;BME280;34005;48.844;10.098;2023-03-31T05:09:11;95619.16;;;10.01;71.23
48216;BME280;34005;48.844;10.098;2023-03-31T05:11:40;95619.59;;;9.98;70.46
48216;BME280;34005;48.844;10.098;2023-03-31T05:14:07;95610.97;;;9.97;71.66
48216;BME280;34005;48.844;10.098;2023-03-31T05:16:35;95594.13;;;10.00;71.60
48216;BME280;34005;48.844;10.098;2023-03-31T05:19:03;95592.13;;;10.02;71.85
48216;BME280;34005;48.844;10.098;2023-03-31T05:21:31;95596.31;;;10.03;71.62
48216;BME280;34005;48.844;10.098;2023-03-31T05:23:58;95572.28;;;10.01;71.30
48216;BME280;34005;48.844;10.098;2023-03-31T05:26:26;95576.28;;;9.97;72.12
48216;BME280;34005;48.844;10.098;2023-03-31T05:28:55;95574.69;;;9.96;71.90
48216;BME280;34005;48.844;10.098;2023-03-31T05:31:22;95575.09;;;9.93;72.25
48216;BME280;34005;48.844;10.098;2023-03-31T05:33:50;95573.31;;;9.93;72.96
48216;BME280;34005;48.844;10.098;2023-03-31T05:36:18;95570.91;;;9.92;72.35
48216;BME280;34005;48.844;10.098;2023-03-31T05:38:45;95568.47;;;9.90;72.10
48216;BME280;34005;48.844;10.098;2023-03-31T05:41:13;95569.50;;;9.89;72.47
48216;BME280;34005;48.844;10.098;2023-03-31T05:43:42;95567.88;;;9.88;72.23
48216;BME280;34005;48.844;10.098;2023-03-31T05:46:11;95570.72;;;9.86;72.46
48216;BME280;34005;48.844;10.098;2023-03-31T05:48:39;95587.31;;;9.85;73.56
48216;BME280;34005;48.844;10.098;2023-03-31T05:51:07;95584.94;;;9.90;73.30
48216;BME280;34005;48.844;10.098;2023-03-31T05:53:35;95583.13;;;9.91;72.85
48216;BME280;34005;48.844;10.098;2023-03-31T05:56:04;95589.53;;;9.88;73.43
48216;BME280;34005;48.844;10.098;2023-03-31T05:58:34;95591.13;;;9.89;73.31
48216;BME280;34005;48.844;10.098;2023-03-31T06:01:04;95593.13;;;9.94;74.05
48216;BME280;34005;48.844;10.098;2023-03-31T06:03:36;95616.19;;;9.97;75.22
48216;BME280;34005;48.844;10.098;2023-03-31T06:06:04;95613.97;;;10.01;75.08
48216;BME280;34005;48.844;10.098;2023-03-31T06:08:33;95619.38;;;10.06;75.13
48216;BME280;34005;48.844;10.098;2023-03-31T06:11:03;95609.16;;;10.11;76.38
48216;BME280;34005;48.844;10.098;2023-03-31T06:13:31;95622.38;;;10.16;76.21
48216;BME280;34005;48.844;10.098;2023-03-31T06:15:59;95620.75;;;10.22;75.69
48216;BME280;34005;48.844;10.098;2023-03-31T06:18:28;95619.53;;;10.24;76.25
48216;BME280;34005;48.844;10.098;2023-03-31T06:20:57;95612.34;;;10.26;75.38
48216;BME280;34005;48.844;10.098;2023-03-31T06:23:25;95607.13;;;10.26;75.94
48216;BME280;34005;48.844;10.098;2023-03-31T06:25:53;95610.75;;;10.32;76.40
48216;BME280;34005;48.844;10.098;2023-03-31T06:28:21;95591.28;;;10.35;75.74
48216;BME280;34005;48.844;10.098;2023-03-31T06:30:49;95587.66;;;10.36;75.60
48216;BME280;34005;48.844;10.098;2023-03-31T06:33:16;95582.47;;;10.36;75.49
48216;BME280;34005;48.844;10.098;2023-03-31T06:35:44;95561.78;;;10.34;75.45
48216;BME280;34005;48.844;10.098;2023-03-31T06:38:13;95556.00;;;10.32;75.46
48216;BME280;34005;48.844;10.098;2023-03-31T06:40:41;95547.97;;;10.27;75.69
48216;BME280;34005;48.844;10.098;2023-03-31T06:43:08;95541.97;;;10.26;75.65
48216;BME280;34005;48.844;10.098;2023-03-31T06:45:36;95535.34;;;10.24;75.72
48216;BME280;34005;48.844;10.098;2023-03-31T06:48:04;95535.97;;;10.19;75.74
48216;BME280;34005;48.844;10.098;2023-03-31T06:50:32;95536.97;;;10.18;76.53
48216;BME280;34005;48.844;10.098;2023-03-31T06:53:00;95528.16;;;10.19;76.48
48216;BME280;34005;48.844;10.098;2023-03-31T06:55:28;95516.13;;;10.18;76.30
48216;BME280;34005;48.844;10.098;2023-03-31T06:57:56;95496.88;;;10.19;76.38
48216;BME280;34005;48.844;10.098;2023-03-31T07:00:24;95483.44;;;10.22;77.24
48216;BME280;34005;48.844;10.098;2023-03-31T07:02:52;95485.25;;;10.22;76.41
48216;BME280;34005;48.844;10.098;2023-03-31T07:05:20;95499.50;;;10.19;76.50
48216;BME280;34005;48.844;10.098;2023-03-31T07:07:53;95485.63;;;10.19;76.90
48216;BME280;34005;48.844;10.098;2023-03-31T07:10:21;95481.03;;;10.21;76.61
48216;BME280;34005;48.844;10.098;2023-03-31T07:12:50;95484.44;;;10.21;76.82
48216;BME280;34005;48.844;10.098;2023-03-31T07:15:17;95480.81;;;10.22;76.56
48216;BME280;34005;48.844;10.098;2023-03-31T07:17:45;95466.81;;;10.23;77.46
48216;BME280;34005;48.844;10.098;2023-03-31T07:20:17;95468.78;;;10.28;77.07
48216;BME280;34005;48.844;10.098;2023-03-31T07:22:47;95471.19;;;10.29;77.39
48216;BME280;34005;48.844;10.098;2023-03-31T07:25:16;95499.25;;;10.34;78.05
48216;BME280;34005;48.844;10.098;2023-03-31T07:27:43;95513.47;;;10.38;78.41
48216;BME280;34005;48.844;10.098;2023-03-31T07:30:14;95511.25;;;10.42;78.95
48216;BME280;34005;48.844;10.098;2023-03-31T07:32:44;95536.31;;;10.43;77.64
48216;BME280;34005;48.844;10.098;2023-03-31T07:35:13;95533.69;;;10.43;77.44
48216;BME280;34005;48.844;10.098;2023-03-31T07:37:42;95557.75;;;10.45;77.57
48216;BME280;34005;48.844;10.098;2023-03-31T07:40:13;95579.81;;;10.49;77.86
48216;BME280;34005;48.844;10.098;2023-03-31T07:42:42;95586.63;;;10.50;77.83
48216;BME280;34005;48.844;10.098;2023-03-31T07:45:16;95623.13;;;10.50;77.98
48216;BME280;34005;48.844;10.098;2023-03-31T07:47:44;95634.56;;;10.49;77.38
48216;BME280;34005;48.844;10.098;2023-03-31T07:50:14;95644.38;;;10.47;77.74
48216;BME280;34005;48.844;10.098;2023-03-31T07:52:42;95613.09;;;10.47;77.92
48216;BME280;34005;48.844;10.098;2023-03-31T07:55:12;95579.22;;;10.47;77.83
48216;BME280;34005;48.844;10.098;2023-03-31T07:57:41;95543.72;;;10.46;77.24
48216;BME280;34005;48.844;10.098;2023-03-31T08:00:12;95507.41;;;10.51;76.59
48216;BME280;34005;48.844;10.098;2023-03-31T08:02:43;95468.69;;;10.55;75.11
48216;BME280;34005;48.844;10.098;2023-03-31T08:05:12;95494.56;;;10.56;75.55
48216;BME280;34005;48.844;10.098;2023-03-31T08:07:42;95489.34;;;10.56;75.05
48216;BME280;34005;48.844;10.098;2023-03-31T08:10:12;95485.72;;;10.57;74.70
48216;BME280;34005;48.844;10.098;2023-03-31T08:12:40;95479.66;;;10.63;74.13
48216;BME280;34005;48.844;10.098;2023-03-31T08:15:08;95476.22;;;10.69;71.98
48216;BME280;34005;48.844;10.098;2023-03-31T08:17:37;95472.94;;;10.81;72.17
48216;BME280;34005;48.844;10.098;2023-03-31T08:20:07;95456.56;;;10.99;70.35
48216;BME280;34005;48.844;10.098;2023-03-31T08:22:36;95478.81;;;11.01;71.47
48216;BME280;34005;48.844;10.098;2023-03-31T08:25:05;95479.59;;;11.02;70.60
48216;BME280;34005;48.844;10.098;2023-03-31T08:27:33;95474.34;;;11.08;69.91
48216;BME280;34005;48.844;10.098;2023-03-31T08:30:02;95477.25;;;11.69;68.87
48216;BME280;34005;48.844;10.098;2023-03-31T08:32:30;95453.50;;;12.14;66.89
48216;BME280;34005;48.844;10.098;2023-03-31T08:34:58;95440.91;;;12.04;66.57
48216;BME280;34005;48.844;10.098;2023-03-31T08:37:28;95426.97;;;12.10;66.54
48216;BME280;34005;48.844;10.098;2023-03-31T08:39:57;95424.91;;;13.15;64.49
48216;BME280;34005;48.844;10.098;2023-03-31T08:42:34;95433.66;;;14.72;61.51
48216;BME280;34005;48.844;10.098;2023-03-31T08:45:05;95451.63;;;15.82;57.35
48216;BME280;34005;48.844;10.098;2023-03-31T08:47:38;95455.06;;;16.48;54.02
48216;BME280;34005;48.844;10.098;2023-03-31T08:50:11;95454.75;;;16.67;52.94
48216;BME280;34005;48.844;10.098;2023-03-31T08:52:43;95457.13;;;16.68;53.88
48216;BME280;34005;48.844;10.098;2023-03-31T08:55:18;95435.28;;;17.70;51.57
48216;BME280;34005;48.844;10.098;2023-03-31T08:57:54;95428.03;;;18.66;49.29
48216;BME280;34005;48.844;10.098;2023-03-31T09:00:31;95440.03;;;19.35;46.41
48216;BME280;34005;48.844;10.098;2023-03-31T09:03:12;95424.63;;;19.78;47.02
48216;BME280;34005;48.844;10.098;2023-03-31T09:05:46;95420.50;;;20.22;46.82
48216;BME280;34005;48.844;10.098;2023-03-31T09:08:33;95430.41;;;20.61;43.82
48216;BME280;34005;48.844;10.098;2023-03-31T09:11:07;95427.63;;;20.81;43.71
48216;BME280;34005;48.844;10.098;2023-03-31T09:13:53;95423.84;;;20.92;41.63
48216;BME280;34005;48.844;10.098;2023-03-31T09:16:25;95426.22;;;20.94;42.42
48216;BME280;34005;48.844;10.098;2023-03-31T09:18:57;95418.53;;;20.92;43.78
48216;BME280;34005;48.844;10.098;2023-03-31T09:21:26;95416.03;;;21.11;43.25
48216;BME280;34005;48.844;10.098;2023-03-31T09:24:02;95417.25;;;21.24;45.00
48216;BME280;34005;48.844;10.098;2023-03-31T09:26:35;95422.28;;;21.26;44.42
48216;BME280;34005;48.844;10.098;2023-03-31T09:29:06;95415.34;;;21.30;43.35
48216;BME280;34005;48.844;10.098;2023-03-31T09:31:37;95417.44;;;21.33;43.49
48216;BME280;34005;48.844;10.098;2023-03-31T09:34:13;95419.75;;;21.45;43.84
48216;BME280;34005;48.844;10.098;2023-03-31T09:36:41;95397.66;;;21.49;42.46
48216;BME280;34005;48.844;10.098;2023-03-31T09:39:13;95403.97;;;21.58;43.83
48216;BME280;34005;48.844;10.098;2023-03-31T09:41:44;95407.34;;;21.64;42.32
48216;BME280;34005;48.844;10.098;2023-03-31T09:44:22;95410.50;;;21.66;39.33
48216;BME280;34005;48.844;10.098;2023-03-31T09:46:52;95420.75;;;21.54;43.87
48216;BME280;34005;48.844;10.098;2023-03-31T09:49:22;95407.69;;;21.57;41.17
48216;BME280;34005;48.844;10.098;2023-03-31T09:51:59;95406.38;;;21.55;41.86
48216;BME280;34005;48.844;10.098;2023-03-31T09:54:34;95387.16;;;21.68;40.31
48216;BME280;34005;48.844;10.098;2023-03-31T09:57:12;95375.34;;;21.79;38.68
48216;BME280;34005;48.844;10.098;2023-03-31T09:59:40;95389.63;;;21.84;40.91
48216;BME280;34005;48.844;10.098;2023-03-31T10:02:24;95394.75;;;21.99;40.69
48216;BME280;34005;48.844;10.098;2023-03-31T10:04:54;95373.13;;;22.11;37.57
48216;BME280;34005;48.844;10.098;2023-03-31T10:07:23;95384.66;;;22.01;38.15
48216;BME280;34005;48.844;10.098;2023-03-31T10:09:53;95390.66;;;21.88;37.38
48216;BME280;34005;48.844;10.098;2023-03-31T10:12:24;95376.97;;;21.75;37.25
48216;BME280;34005;48.844;10.098;2023-03-31T10:14:53;95383.25;;;21.60;39.43
48216;BME280;34005;48.844;10.098;2023-03-31T10:17:27;95380.03;;;21.34;40.28
48216;BME280;34005;48.844;10.098;2023-03-31T10:20:11;95368.94;;;20.98;41.02
48216;BME280;34005;48.844;10.098;2023-03-31T10:22:44;95340.22;;;20.76;40.72
48216;BME280;34005;48.844;10.098;2023-03-31T10:25:16;95353.22;;;20.72;41.88
48216;BME280;34005;48.844;10.098;2023-03-31T10:27:47;95329.56;;;20.86;41.41
48216;BME280;34005;48.844;10.098;2023-03-31T10:30:20;95338.66;;;21.04;41.82
48216;BME280;34005;48.844;10.098;2023-03-31T10:32:48;95333.47;;;21.23;40.06
48216;BME280;34005;48.844;10.098;2023-03-31T10:35:23;95330.06;;;21.17;39.54
48216;BME280;34005;48.844;10.098;2023-03-31T10:37:54;95344.03;;;20.65;40.25
48216;BME280;34005;48.844;10.098;2023-03-31T10:40:26;95344.72;;;20.31;41.14
48216;BME280;34005;48.844;10.098;2023-03-31T10:43:01;95355.69;;;20.14;42.65
48216;BME280;34005;48.844;10.098;2023-03-31T10:45:30;95346.97;;;20.08;41.13
48216;BME280;34005;48.844;10.098;2023-03-31T10:48:05;95334.59;;;19.93;40.10
48216;BME280;34005;48.844;10.098;2023-03-31T10:50:43;95330.13;;;19.89;41.59
48216;BME280;34005;48.844;10.098;2023-03-31T10:53:13;95316.28;;;20.02;42.82
48216;BME280;34005;48.844;10.098;2023-03-31T10:55:48;95304.84;;;20.17;39.16
48216;BME280;34005;48.844;10.098;2023-03-31T10:58:27;95305.59;;;20.23;39.74
48216;BME280;34005;48.844;10.098;2023-03-31T11:01:05;95308.69;;;20.35;39.11
48216;BME280;34005;48.844;10.098;2023-03-31T11:03:54;95298.31;;;20.44;40.49
48216;BME280;34005;48.844;10.098;2023-03-31T11:06:32;95294.56;;;20.50;37.34
48216;BME280;34005;48.844;10.098;2023-03-31T11:09:13;95302.16;;;20.62;36.30
48216;BME280;34005;48.844;10.098;2023-03-31T11:11:56;95292.06;;;20.69;37.22
48216;BME280;34005;48.844;10.098;2023-03-31T11:14:35;95277.31;;;20.87;39.39
48216;BME280;34005;48.844;10.098;2023-03-31T11:17:15;95280.53;;;21.13;39.90
48216;BME280;34005;48.844;10.098;2023-03-31T11:19:54;95272.84;;;21.35;38.56
48216;BME280;34005;48.844;10.098;2023-03-31T11:22:30;95291.56;;;21.49;36.36
48216;BME280;34005;48.844;10.098;2023-03-31T11:25:26;95270.63;;;21.48;33.27
48216;BME280;34005;48.844;10.098;2023-03-31T11:28:23;95271.50;;;21.38;35.68
48216;BME280;34005;48.844;10.098;2023-03-31T11:30:58;95260.69;;;21.34;35.51
48216;BME280;34005;48.844;10.098;2023-03-31T11:33:37;95248.47;;;21.33;34.79
48216;BME280;34005;48.844;10.098;2023-03-31T11:36:18;95241.59;;;21.32;36.06
48216;BME280;34005;48.844;10.098;2023-03-31T11:39:02;95235.78;;;21.30;33.38
48216;BME280;34005;48.844;10.098;2023-03-31T11:41:40;95233.69;;;21.27;34.35
48216;BME280;34005;48.844;10.098;2023-03-31T11:44:14;95234.84;;;21.21;32.70
48216;BME280;34005;48.844;10.098;2023-03-31T11:46:45;95231.78;;;21.09;33.82
48216;BME280;34005;48.844;10.098;2023-03-31T11:49:18;95215.00;;;20.89;33.37
48216;BME280;34005;48.844;10.098;2023-03-31T11:51:51;95212.78;;;20.72;34.25
48216;BME280;34005;48.844;10.098;2023-03-31T11:54:26;95212.94;;;20.57;36.24
48216;BME280;34005;48.844;10.098;2023-03-31T11:56:55;95220.78;;;20.33;35.01
48216;BME280;34005;48.844;10.098;2023-03-31T11:59:25;95227.91;;;20.03;34.41
48216;BME280;34005;48.844;10.098;2023-03-31T12:02:02;95249.78;;;19.69;35.42
48216;BME280;34005;48.844;10.098;2023-03-31T12:04:33;95366.75;;;19.30;37.04
48216;BME280;34005;48.844;10.098;2023-03-31T12:07:13;95440.13;;;18.46;42.26
48216;BME280;34005;48.844;10.098;2023-03-31T12:09:51;95461.91;;;17.68;45.93
48216;BME280;34005;48.844;10.098;2023-03-31T12:12:24;95468.25;;;17.03;47.37
48216;BME280;34005;48.844;10.098;2023-03-31T12:14:59;95478.69;;;16.65;48.94
48216;BME280;34005;48.844;10.098;2023-03-31T12:17:30;95468.69;;;16.40;49.72
48216;BME280;34005;48.844;10.098;2023-03-31T12:20:00;95467.06;;;16.17;48.58
48216;BME280;34005;48.844;10.098;2023-03-31T12:22:34;95457.69;;;15.82;50.44
48216;BME280;34005;48.844;10.098;2023-03-31T12:25:04;95447.94;;;15.44;49.05
48216;BME280;34005;48.844;10.098;2023-03-31T12:27:36;95417.47;;;15.09;51.27
48216;BME280;34005;48.844;10.098;2023-03-31T12:30:09;95413.22;;;14.91;52.04
48216;BME280;34005;48.844;10.098;2023-03-31T12:32:42;95404.22;;;14.70;53.11
48216;BME280;34005;48.844;10.098;2023-03-31T12:35:18;95389.50;;;14.40;52.39
48216;BME280;34005;48.844;10.098;2023-03-31T12:38:15;95374.31;;;14.14;52.62
48216;BME280;34005;48.844;10.098;2023-03-31T12:40:56;95367.22;;;13.86;53.21
48216;BME280;34005;48.844;10.098;2023-03-31T12:43:41;95349.19;;;13.60;54.21
48216;BME280;34005;48.844;10.098;2023-03-31T12:46:25;95342.59;;;13.58;56.77
48216;BME280;34005;48.844;10.098;2023-03-31T12:49:07;95323.78;;;13.61;56.59
48216;BME280;34005;48.844;10.098;2023-03-31T12:51:47;95312.78;;;13.76;59.25
48216;BME280;34005;48.844;10.098;2023-03-31T12:54:30;95295.31;;;13.93;56.98
48216;BME280;34005;48.844;10.098;2023-03-31T12:57:12;95313.34;;;14.07;57.04
48216;BME280;34005;48.844;10.098;2023-03-31T12:59:43;95317.41;;;14.14;54.76
48216;BME280;34005;48.844;10.098;2023-03-31T13:02:24;95297.81;;;14.17;54.81
48216;BME280;34005;48.844;10.098;2023-03-31T13:04:52;95282.31;;;14.15;55.09
48216;BME280;34005;48.844;10.098;2023-03-31T13:07:38;95277.69;;;14.22;58.00
48216;BME280;34005;48.844;10.098;2023-03-31T13:10:28;95276.13;;;14.38;56.61
48216;BME280;34005;48.844;10.098;2023-03-31T13:13:00;95277.41;;;14.53;55.73
48216;BME280;34005;48.844;10.098;2023-03-31T13:15:30;95265.59;;;14.67;55.02
48216;BME280;34005;48.844;10.098;2023-03-31T13:18:01;95279.41;;;14.79;54.52
48216;BME280;34005;48.844;10.098;2023-03-31T13:20:34;95290.41;;;14.76;55.76
48216;BME280;34005;48.844;10.098;2023-03-31T13:23:05;95268.34;;;14.77;54.34
48216;BME280;34005;48.844;10.098;2023-03-31T13:25:36;95276.84;;;14.84;53.10